ABY227 OMSJ-LOWW
Flight info
| Callsign | ABY227 |
|---|---|
| Flight time | N/A |
| Altitude | 34000 |
| Route | RIDAP M557 TUMAK L602 GADSI M860 SEPTU/N0458F360 M860 NINVA UM860 ODALI UL852 NEGEM L852 KOMAN DCT DEGET DCT BALUX DCT TORNO DCT NATEX NATEX2W |
| Aircraft | A21N/M-SDE2E3FGHIRWXY/LB1 |
Departure
| Time | 2026-04-27 00:06 |
|---|---|
| Airport | Sharjah International Airport (OMSJ) |
Arrival
| Time | N/A |
|---|---|
| Airport | Vienna International Airport (LOWW) |
| Time | Latitude | Longitude | Altitude | Speed | Heading |
|---|---|---|---|---|---|
| 2026-04-27 00:01 | 25.33627 | 55.49722 | 116 ft | 3 kts | 56° |
| 2026-04-27 00:02 | 25.33623 | 55.49704 | 116 ft | 3 kts | 116° |
| 2026-04-27 00:02 | 25.33624 | 55.49702 | 114 ft | 0 kts | 124° |
| 2026-04-27 00:03 | 25.33606 | 55.49720 | 118 ft | 7 kts | 145° |
| 2026-04-27 00:03 | 25.33560 | 55.49760 | 114 ft | 10 kts | 138° |
| 2026-04-27 00:04 | 25.33556 | 55.49841 | 117 ft | 11 kts | 49° |
| 2026-04-27 00:04 | 25.33648 | 55.49910 | 114 ft | 18 kts | 32° |
| 2026-04-27 00:04 | 25.33752 | 55.49984 | 117 ft | 17 kts | 32° |
| 2026-04-27 00:04 | 25.33859 | 55.50058 | 117 ft | 20 kts | 32° |
| 2026-04-27 00:05 | 25.33965 | 55.50150 | 116 ft | 19 kts | 63° |
| 2026-04-27 00:05 | 25.33953 | 55.50279 | 120 ft | 17 kts | 113° |
| 2026-04-27 00:05 | 25.33857 | 55.50445 | 119 ft | 50 kts | 123° |
| 2026-04-27 00:05 | 25.33549 | 55.50971 | 117 ft | 113 kts | 123° |
| 2026-04-27 00:06 | 25.33009 | 55.51911 | 121 ft | 175 kts | 120° |
| 2026-04-27 00:06 | 25.32323 | 55.53124 | 528 ft | 187 kts | 124° |
| 2026-04-27 00:06 | 25.31586 | 55.54317 | 1164 ft | 185 kts | 125° |
| 2026-04-27 00:06 | 25.30891 | 55.55520 | 1702 ft | 192 kts | 124° |
| 2026-04-27 00:07 | 25.30143 | 55.56835 | 1881 ft | 212 kts | 124° |
| 2026-04-27 00:07 | 25.29351 | 55.58300 | 2063 ft | 232 kts | 117° |
| 2026-04-27 00:07 | 25.28994 | 55.60120 | 2181 ft | 256 kts | 82° |
| 2026-04-27 00:07 | 25.29705 | 55.61920 | 2594 ft | 261 kts | 45° |
| 2026-04-27 00:08 | 25.33671 | 55.49753 | 119 ft | 0 kts | 32° |
| 2026-04-27 00:11 | 25.33657 | 55.49744 | 118 ft | 0 kts | 32° |
| 2026-04-27 00:15 | 25.33654 | 55.49742 | 118 ft | 3 kts | 32° |
| 2026-04-27 00:15 | 25.33632 | 55.49725 | 114 ft | 4 kts | 40° |
| 2026-04-27 00:15 | 25.33613 | 55.49704 | 118 ft | 4 kts | 52° |
| 2026-04-27 00:16 | 25.33599 | 55.49679 | 116 ft | 4 kts | 78° |
| 2026-04-27 00:16 | 25.33600 | 55.49657 | 118 ft | 1 kts | 122° |
| 2026-04-27 00:16 | 25.33603 | 55.49653 | 117 ft | 0 kts | 122° |
| 2026-04-27 00:19 | 25.33590 | 55.49675 | 114 ft | 9 kts | 122° |
| 2026-04-27 00:19 | 25.33551 | 55.49743 | 115 ft | 15 kts | 122° |
| 2026-04-27 00:19 | 25.33549 | 55.49838 | 114 ft | 12 kts | 45° |
| 2026-04-27 00:19 | 25.33616 | 55.49889 | 116 ft | 11 kts | 32° |
| 2026-04-27 00:20 | 25.33688 | 55.49941 | 119 ft | 16 kts | 33° |
| 2026-04-27 00:20 | 25.33783 | 55.50008 | 115 ft | 16 kts | 32° |
| 2026-04-27 00:20 | 25.33875 | 55.50073 | 119 ft | 15 kts | 32° |
| 2026-04-27 00:20 | 25.33961 | 55.50135 | 119 ft | 14 kts | 41° |
| 2026-04-27 00:21 | 25.33981 | 55.50227 | 120 ft | 12 kts | 114° |
| 2026-04-27 00:21 | 25.33848 | 55.50463 | 119 ft | 69 kts | 122° |
| 2026-04-27 00:21 | 25.33466 | 55.51121 | 117 ft | 135 kts | 122° |
| 2026-04-27 00:21 | 25.32861 | 55.52189 | 120 ft | 193 kts | 123° |
| 2026-04-27 00:22 | 25.32092 | 55.53509 | 478 ft | 208 kts | 123° |
| 2026-04-27 00:22 | 25.31345 | 55.54819 | 1275 ft | 194 kts | 124° |
| 2026-04-27 00:22 | 25.30617 | 55.56082 | 1788 ft | 201 kts | 124° |
| 2026-04-27 00:22 | 25.29831 | 55.57435 | 1984 ft | 219 kts | 124° |
| 2026-04-27 00:23 | 25.29099 | 55.59035 | 2067 ft | 246 kts | 105° |
| 2026-04-27 00:23 | 25.29167 | 55.60955 | 2341 ft | 260 kts | 67° |
| 2026-04-27 00:23 | 25.30271 | 55.62507 | 2835 ft | 259 kts | 29° |
| 2026-04-27 00:23 | 25.31886 | 55.63305 | 3508 ft | 253 kts | 16° |
| 2026-04-27 00:24 | 25.33563 | 55.63920 | 4143 ft | 254 kts | 15° |
| 2026-04-27 00:24 | 25.35245 | 55.64543 | 4724 ft | 256 kts | 15° |
| 2026-04-27 00:24 | 25.36940 | 55.65198 | 5282 ft | 260 kts | 15° |
| 2026-04-27 00:24 | 25.38645 | 55.65885 | 5852 ft | 262 kts | 16° |
| 2026-04-27 00:25 | 25.40326 | 55.66649 | 6358 ft | 269 kts | 21° |
| 2026-04-27 00:25 | 25.42045 | 55.67595 | 6715 ft | 280 kts | 23° |
| 2026-04-27 00:25 | 25.43842 | 55.68479 | 7154 ft | 283 kts | 9° |
| 2026-04-27 00:25 | 25.45759 | 55.68454 | 7637 ft | 276 kts | 337° |
| 2026-04-27 00:26 | 25.47329 | 55.67294 | 8139 ft | 273 kts | 309° |
| 2026-04-27 00:26 | 25.48452 | 55.65601 | 8677 ft | 275 kts | 303° |
| 2026-04-27 00:26 | 25.49507 | 55.63818 | 9184 ft | 278 kts | 302° |
| 2026-04-27 00:26 | 25.50572 | 55.62021 | 9708 ft | 281 kts | 302° |
| 2026-04-27 00:27 | 25.51658 | 55.60217 | 10194 ft | 283 kts | 302° |
| 2026-04-27 00:27 | 25.52771 | 55.58402 | 10685 ft | 287 kts | 303° |
| 2026-04-27 00:27 | 25.53839 | 55.56527 | 11240 ft | 288 kts | 294° |
| 2026-04-27 00:27 | 25.54410 | 55.54418 | 11775 ft | 288 kts | 274° |
| 2026-04-27 00:28 | 25.54195 | 55.52246 | 12334 ft | 290 kts | 251° |
| 2026-04-27 00:28 | 25.53319 | 55.50233 | 12948 ft | 292 kts | 241° |
| 2026-04-27 00:28 | 25.52258 | 55.48318 | 13603 ft | 292 kts | 239° |
| 2026-04-27 00:28 | 25.51167 | 55.46403 | 14223 ft | 295 kts | 239° |
| 2026-04-27 00:29 | 25.50080 | 55.44472 | 14857 ft | 296 kts | 239° |
| 2026-04-27 00:29 | 25.49000 | 55.42532 | 15498 ft | 297 kts | 241° |
| 2026-04-27 00:29 | 25.48116 | 55.40453 | 16014 ft | 302 kts | 250° |
| 2026-04-27 00:29 | 25.47443 | 55.38191 | 16265 ft | 316 kts | 253° |
| 2026-04-27 00:30 | 25.46799 | 55.35805 | 16484 ft | 330 kts | 253° |
| 2026-04-27 00:30 | 25.46136 | 55.33326 | 16690 ft | 342 kts | 253° |
| 2026-04-27 00:30 | 25.45444 | 55.30759 | 16882 ft | 354 kts | 253° |
| 2026-04-27 00:30 | 25.44724 | 55.28099 | 17060 ft | 365 kts | 253° |
| 2026-04-27 00:31 | 25.43984 | 55.25371 | 17212 ft | 375 kts | 253° |
| 2026-04-27 00:31 | 25.43231 | 55.22610 | 17366 ft | 383 kts | 253° |
| 2026-04-27 00:31 | 25.42453 | 55.19756 | 17491 ft | 390 kts | 253° |
| 2026-04-27 00:31 | 25.41661 | 55.16856 | 17601 ft | 397 kts | 253° |
| 2026-04-27 00:32 | 25.40856 | 55.13912 | 17717 ft | 402 kts | 253° |
| 2026-04-27 00:32 | 25.40045 | 55.10939 | 17902 ft | 404 kts | 253° |
| 2026-04-27 00:32 | 25.39260 | 55.07950 | 18122 ft | 405 kts | 254° |
| 2026-04-27 00:32 | 25.38483 | 55.04943 | 18281 ft | 407 kts | 254° |
| 2026-04-27 00:33 | 25.37715 | 55.01969 | 18442 ft | 408 kts | 254° |
| 2026-04-27 00:33 | 25.36933 | 54.98947 | 18635 ft | 409 kts | 254° |
| 2026-04-27 00:33 | 25.36151 | 54.95921 | 18808 ft | 409 kts | 255° |
| 2026-04-27 00:33 | 25.35554 | 54.92839 | 18943 ft | 411 kts | 263° |
| 2026-04-27 00:34 | 25.35495 | 54.89675 | 19072 ft | 413 kts | 274° |
| 2026-04-27 00:34 | 25.36044 | 54.86550 | 19209 ft | 415 kts | 284° |
| 2026-04-27 00:34 | 25.36886 | 54.83484 | 19326 ft | 416 kts | 285° |
| 2026-04-27 00:34 | 25.37775 | 54.80437 | 19470 ft | 417 kts | 286° |
| 2026-04-27 00:35 | 25.38665 | 54.77389 | 19594 ft | 417 kts | 286° |
| 2026-04-27 00:35 | 25.39553 | 54.74323 | 19712 ft | 418 kts | 286° |
| 2026-04-27 00:35 | 25.40435 | 54.71256 | 19839 ft | 419 kts | 285° |
| 2026-04-27 00:35 | 25.41303 | 54.68223 | 19980 ft | 418 kts | 285° |
| 2026-04-27 00:36 | 25.42179 | 54.65151 | 20119 ft | 419 kts | 285° |
| 2026-04-27 00:36 | 25.43056 | 54.62076 | 20253 ft | 420 kts | 286° |
| 2026-04-27 00:36 | 25.43951 | 54.58995 | 20388 ft | 421 kts | 286° |
| 2026-04-27 00:36 | 25.44863 | 54.55903 | 20579 ft | 421 kts | 286° |
| 2026-04-27 00:37 | 25.45776 | 54.52829 | 20738 ft | 421 kts | 286° |
| 2026-04-27 00:37 | 25.46693 | 54.49742 | 20939 ft | 422 kts | 286° |
| 2026-04-27 00:37 | 25.47598 | 54.46689 | 21104 ft | 423 kts | 286° |
| 2026-04-27 00:37 | 25.48514 | 54.43596 | 21275 ft | 424 kts | 286° |
| 2026-04-27 00:38 | 25.49433 | 54.40489 | 21480 ft | 424 kts | 286° |
| 2026-04-27 00:38 | 25.50352 | 54.37375 | 21686 ft | 425 kts | 286° |
| 2026-04-27 00:38 | 25.51268 | 54.34263 | 21904 ft | 425 kts | 286° |
| 2026-04-27 00:38 | 25.52184 | 54.31148 | 22086 ft | 426 kts | 286° |
| 2026-04-27 00:39 | 25.53106 | 54.28015 | 22299 ft | 427 kts | 286° |
| 2026-04-27 00:39 | 25.54027 | 54.24879 | 22477 ft | 428 kts | 286° |
| 2026-04-27 00:39 | 25.54948 | 54.21739 | 22703 ft | 429 kts | 286° |
| 2026-04-27 00:39 | 25.55870 | 54.18595 | 22889 ft | 430 kts | 286° |
| 2026-04-27 00:40 | 25.56793 | 54.15445 | 23127 ft | 430 kts | 286° |
| 2026-04-27 00:40 | 25.57707 | 54.12326 | 23340 ft | 431 kts | 287° |
| 2026-04-27 00:40 | 25.58632 | 54.09169 | 23546 ft | 432 kts | 286° |
| 2026-04-27 00:40 | 25.59556 | 54.06000 | 23763 ft | 432 kts | 286° |
| 2026-04-27 00:41 | 25.60471 | 54.02820 | 23950 ft | 434 kts | 286° |
| 2026-04-27 00:41 | 25.61382 | 53.99633 | 24183 ft | 434 kts | 286° |
| 2026-04-27 00:41 | 25.62296 | 53.96420 | 24398 ft | 436 kts | 286° |
| 2026-04-27 00:41 | 25.63209 | 53.93209 | 24675 ft | 435 kts | 286° |
| 2026-04-27 00:42 | 25.64109 | 53.90038 | 24895 ft | 437 kts | 286° |
| 2026-04-27 00:42 | 25.65021 | 53.86823 | 25156 ft | 437 kts | 286° |
| 2026-04-27 00:42 | 25.65935 | 53.83603 | 25486 ft | 436 kts | 286° |
| 2026-04-27 00:42 | 25.66845 | 53.80402 | 25867 ft | 434 kts | 286° |
| 2026-04-27 00:43 | 25.67750 | 53.77211 | 26198 ft | 433 kts | 286° |
| 2026-04-27 00:43 | 25.68652 | 53.74029 | 26549 ft | 431 kts | 286° |
| 2026-04-27 00:43 | 25.69549 | 53.70856 | 26874 ft | 430 kts | 286° |
| 2026-04-27 00:43 | 25.70428 | 53.67731 | 27178 ft | 429 kts | 286° |
| 2026-04-27 00:44 | 25.71316 | 53.64572 | 27453 ft | 429 kts | 286° |
| 2026-04-27 00:44 | 25.72202 | 53.61416 | 27750 ft | 428 kts | 286° |
| 2026-04-27 00:44 | 25.73086 | 53.58268 | 28055 ft | 427 kts | 286° |
| 2026-04-27 00:44 | 25.73968 | 53.55119 | 28325 ft | 426 kts | 286° |
| 2026-04-27 00:45 | 25.74845 | 53.51988 | 28630 ft | 425 kts | 286° |
| 2026-04-27 00:45 | 25.75724 | 53.48854 | 28920 ft | 424 kts | 286° |
| 2026-04-27 00:45 | 25.76600 | 53.45732 | 29220 ft | 422 kts | 286° |
| 2026-04-27 00:45 | 25.77471 | 53.42627 | 29514 ft | 420 kts | 286° |
| 2026-04-27 00:46 | 25.78340 | 53.39528 | 29760 ft | 420 kts | 286° |
| 2026-04-27 00:46 | 25.79201 | 53.36455 | 30020 ft | 420 kts | 286° |
| 2026-04-27 00:46 | 25.80066 | 53.33368 | 30289 ft | 418 kts | 286° |
| 2026-04-27 00:46 | 25.80927 | 53.30284 | 30551 ft | 417 kts | 286° |
| 2026-04-27 00:47 | 25.81785 | 53.27210 | 30828 ft | 416 kts | 286° |
| 2026-04-27 00:47 | 25.82641 | 53.24146 | 31076 ft | 415 kts | 286° |
| 2026-04-27 00:47 | 25.83494 | 53.21089 | 31322 ft | 414 kts | 286° |
| 2026-04-27 00:47 | 25.84464 | 53.18115 | 31538 ft | 415 kts | 291° |
| 2026-04-27 00:48 | 25.85592 | 53.15170 | 31816 ft | 413 kts | 292° |
| 2026-04-27 00:48 | 25.86746 | 53.12261 | 32067 ft | 412 kts | 292° |
| 2026-04-27 00:48 | 25.87920 | 53.09360 | 32307 ft | 411 kts | 292° |
| 2026-04-27 00:48 | 25.89100 | 53.06471 | 32504 ft | 410 kts | 292° |
| 2026-04-27 00:49 | 25.90282 | 53.03589 | 32714 ft | 409 kts | 293° |
| 2026-04-27 00:49 | 25.91460 | 53.00711 | 32928 ft | 408 kts | 293° |
| 2026-04-27 00:49 | 25.92619 | 52.97869 | 33126 ft | 407 kts | 292° |
| 2026-04-27 00:49 | 25.93787 | 52.94998 | 33303 ft | 407 kts | 292° |
| 2026-04-27 00:50 | 25.94949 | 52.92137 | 33514 ft | 405 kts | 292° |
| 2026-04-27 00:50 | 25.97256 | 52.86446 | 33828 ft | 404 kts | 292° |
| 2026-04-27 00:51 | 25.99572 | 52.80722 | 33850 ft | 404 kts | 292° |
| 2026-04-27 00:51 | 26.01872 | 52.75049 | 33849 ft | 402 kts | 293° |
| 2026-04-27 00:52 | 26.04313 | 52.69465 | 33851 ft | 401 kts | 294° |
| 2026-04-27 00:52 | 26.06830 | 52.63926 | 33850 ft | 401 kts | 295° |
| 2026-04-27 00:53 | 26.09327 | 52.58433 | 33851 ft | 400 kts | 294° |
| 2026-04-27 00:53 | 26.11827 | 52.52888 | 33851 ft | 400 kts | 294° |
| 2026-04-27 00:54 | 26.14322 | 52.47352 | 33851 ft | 400 kts | 294° |
| 2026-04-27 00:54 | 26.16398 | 52.42739 | 33850 ft | 400 kts | 294° |
| 2026-04-27 00:55 | 26.19300 | 52.36295 | 33851 ft | 400 kts | 294° |
| 2026-04-27 00:55 | 26.21371 | 52.31694 | 33850 ft | 400 kts | 294° |
| 2026-04-27 00:56 | 26.23818 | 52.26137 | 33851 ft | 400 kts | 294° |
| 2026-04-27 00:56 | 26.26235 | 52.20537 | 33850 ft | 400 kts | 294° |
| 2026-04-27 00:57 | 26.28646 | 52.14939 | 33844 ft | 401 kts | 294° |
| 2026-04-27 00:57 | 26.31061 | 52.09340 | 33851 ft | 400 kts | 294° |
| 2026-04-27 00:58 | 26.33480 | 52.03741 | 33851 ft | 400 kts | 294° |
| 2026-04-27 00:58 | 26.35878 | 51.98191 | 33850 ft | 399 kts | 294° |
| 2026-04-27 00:59 | 26.38116 | 51.92523 | 33851 ft | 399 kts | 290° |
| 2026-04-27 00:59 | 26.40104 | 51.86754 | 33851 ft | 398 kts | 289° |
| 2026-04-27 01:00 | 26.42040 | 51.80973 | 33851 ft | 398 kts | 289° |
| 2026-04-27 01:00 | 26.43972 | 51.75178 | 33855 ft | 398 kts | 289° |
| 2026-04-27 01:01 | 26.45905 | 51.69397 | 33860 ft | 397 kts | 289° |
| 2026-04-27 01:01 | 26.47833 | 51.63629 | 33860 ft | 397 kts | 289° |
| 2026-04-27 01:02 | 26.49757 | 51.57857 | 33865 ft | 396 kts | 289° |
| 2026-04-27 01:02 | 26.51664 | 51.52128 | 33860 ft | 396 kts | 289° |
| 2026-04-27 01:03 | 26.53576 | 51.46371 | 33860 ft | 395 kts | 289° |
| 2026-04-27 01:03 | 26.55485 | 51.40613 | 33860 ft | 395 kts | 289° |
| 2026-04-27 01:04 | 26.57393 | 51.34855 | 33870 ft | 395 kts | 288° |
| 2026-04-27 01:04 | 26.59294 | 51.29103 | 33869 ft | 394 kts | 288° |
| 2026-04-27 01:05 | 26.61185 | 51.23393 | 33868 ft | 394 kts | 288° |
| 2026-04-27 01:05 | 26.63085 | 51.17655 | 33860 ft | 393 kts | 288° |
| 2026-04-27 01:06 | 26.64978 | 51.11928 | 33860 ft | 393 kts | 288° |
| 2026-04-27 01:06 | 26.66868 | 51.06201 | 33860 ft | 392 kts | 288° |
| 2026-04-27 01:07 | 26.68752 | 51.00470 | 33860 ft | 392 kts | 288° |
| 2026-04-27 01:07 | 26.70582 | 50.94777 | 33860 ft | 391 kts | 288° |
| 2026-04-27 01:08 | 26.72413 | 50.89042 | 33860 ft | 391 kts | 288° |
| 2026-04-27 01:08 | 26.74241 | 50.83312 | 33860 ft | 391 kts | 288° |
| 2026-04-27 01:09 | 26.76071 | 50.77577 | 33860 ft | 391 kts | 288° |
| 2026-04-27 01:09 | 26.77886 | 50.71886 | 33859 ft | 390 kts | 287° |
| 2026-04-27 01:10 | 26.79897 | 50.66246 | 33860 ft | 392 kts | 295° |
| 2026-04-27 01:10 | 26.82965 | 50.61155 | 33858 ft | 397 kts | 303° |
| 2026-04-27 01:11 | 26.86430 | 50.56319 | 33851 ft | 398 kts | 304° |
| 2026-04-27 01:11 | 26.89957 | 50.51541 | 33851 ft | 397 kts | 304° |
| 2026-04-27 01:12 | 26.93567 | 50.46843 | 33850 ft | 399 kts | 307° |
| 2026-04-27 01:12 | 26.97372 | 50.42333 | 33850 ft | 400 kts | 308° |
| 2026-04-27 01:13 | 27.01229 | 50.37824 | 33851 ft | 400 kts | 308° |
| 2026-04-27 01:13 | 27.05058 | 50.33298 | 33863 ft | 400 kts | 307° |
| 2026-04-27 01:14 | 27.08857 | 50.28735 | 33861 ft | 399 kts | 307° |
| 2026-04-27 01:14 | 27.12615 | 50.24188 | 33860 ft | 399 kts | 307° |
| 2026-04-27 01:15 | 27.16553 | 50.19755 | 33860 ft | 405 kts | 314° |
| 2026-04-27 01:15 | 27.21030 | 50.15857 | 33860 ft | 407 kts | 316° |
| 2026-04-27 01:16 | 27.25607 | 50.12082 | 33860 ft | 408 kts | 316° |
| 2026-04-27 01:16 | 27.30168 | 50.08345 | 33851 ft | 408 kts | 316° |
| 2026-04-27 01:17 | 27.34749 | 50.04567 | 33851 ft | 408 kts | 316° |
| 2026-04-27 01:17 | 27.39273 | 50.00711 | 33860 ft | 406 kts | 315° |
| 2026-04-27 01:18 | 27.43722 | 49.96788 | 33860 ft | 405 kts | 314° |
| 2026-04-27 01:18 | 27.48158 | 49.92860 | 33860 ft | 406 kts | 314° |
| 2026-04-27 01:19 | 27.52607 | 49.88929 | 33860 ft | 406 kts | 314° |
| 2026-04-27 01:19 | 27.57028 | 49.85031 | 33859 ft | 406 kts | 314° |
| 2026-04-27 01:20 | 27.61486 | 49.81100 | 33860 ft | 407 kts | 314° |
| 2026-04-27 01:20 | 27.65947 | 49.77160 | 33875 ft | 407 kts | 314° |
| 2026-04-27 01:21 | 27.70400 | 49.73220 | 33878 ft | 406 kts | 314° |
| 2026-04-27 01:21 | 27.74817 | 49.69308 | 33885 ft | 406 kts | 314° |
| 2026-04-27 01:22 | 27.79253 | 49.65373 | 33888 ft | 406 kts | 314° |
| 2026-04-27 01:22 | 27.83690 | 49.61416 | 33892 ft | 406 kts | 314° |
| 2026-04-27 01:23 | 27.88125 | 49.57454 | 33886 ft | 406 kts | 314° |
| 2026-04-27 01:23 | 27.92524 | 49.53520 | 33885 ft | 405 kts | 314° |
| 2026-04-27 01:24 | 27.96953 | 49.49554 | 33885 ft | 406 kts | 314° |
| 2026-04-27 01:24 | 28.01383 | 49.45584 | 33895 ft | 406 kts | 314° |
| 2026-04-27 01:25 | 28.05793 | 49.41600 | 33899 ft | 405 kts | 313° |
| 2026-04-27 01:25 | 28.10198 | 49.37580 | 33900 ft | 406 kts | 313° |
| 2026-04-27 01:26 | 28.14568 | 49.33583 | 33890 ft | 406 kts | 313° |
| 2026-04-27 01:26 | 28.18962 | 49.29564 | 33879 ft | 406 kts | 313° |
| 2026-04-27 01:27 | 28.23368 | 49.25534 | 33878 ft | 407 kts | 313° |
| 2026-04-27 01:27 | 28.27772 | 49.21501 | 33878 ft | 407 kts | 313° |
| 2026-04-27 01:28 | 28.32143 | 49.17492 | 33878 ft | 407 kts | 313° |
| 2026-04-27 01:28 | 28.36551 | 49.13446 | 33878 ft | 407 kts | 313° |
| 2026-04-27 01:29 | 28.41092 | 49.09533 | 33878 ft | 411 kts | 316° |
| 2026-04-27 01:29 | 28.45822 | 49.05851 | 33878 ft | 412 kts | 317° |
| 2026-04-27 01:30 | 28.50557 | 49.02229 | 33878 ft | 413 kts | 317° |
| 2026-04-27 01:30 | 28.55329 | 48.98581 | 33878 ft | 412 kts | 317° |
| 2026-04-27 01:31 | 28.60094 | 48.94926 | 33878 ft | 413 kts | 317° |
| 2026-04-27 01:31 | 28.64852 | 48.91265 | 33893 ft | 413 kts | 317° |
| 2026-04-27 01:32 | 28.69594 | 48.87615 | 33885 ft | 413 kts | 317° |
| 2026-04-27 01:32 | 28.74361 | 48.83942 | 33885 ft | 413 kts | 317° |
| 2026-04-27 01:33 | 28.79127 | 48.80265 | 33885 ft | 413 kts | 317° |
| 2026-04-27 01:33 | 28.83863 | 48.76625 | 33885 ft | 414 kts | 317° |
| 2026-04-27 01:34 | 28.88651 | 48.72957 | 33884 ft | 414 kts | 317° |
| 2026-04-27 01:34 | 28.93437 | 48.69287 | 33885 ft | 414 kts | 317° |
| 2026-04-27 01:35 | 28.98222 | 48.65614 | 33885 ft | 414 kts | 317° |
| 2026-04-27 01:35 | 29.02975 | 48.61959 | 33889 ft | 414 kts | 317° |
| 2026-04-27 01:36 | 29.07769 | 48.58270 | 33889 ft | 415 kts | 317° |
| 2026-04-27 01:36 | 29.12561 | 48.54579 | 33885 ft | 415 kts | 317° |
| 2026-04-27 01:37 | 29.17322 | 48.50910 | 33886 ft | 415 kts | 317° |
| 2026-04-27 01:37 | 29.22109 | 48.47215 | 33885 ft | 414 kts | 317° |
| 2026-04-27 01:38 | 29.26904 | 48.43509 | 33885 ft | 415 kts | 317° |
| 2026-04-27 01:38 | 29.31668 | 48.39822 | 33885 ft | 415 kts | 317° |
| 2026-04-27 01:39 | 29.36463 | 48.36105 | 33886 ft | 415 kts | 317° |
| 2026-04-27 01:39 | 29.41253 | 48.32387 | 33882 ft | 416 kts | 317° |
| 2026-04-27 01:40 | 29.46143 | 48.28784 | 33878 ft | 419 kts | 320° |
| 2026-04-27 01:40 | 29.51189 | 48.25469 | 33878 ft | 421 kts | 321° |
| 2026-04-27 01:41 | 29.56304 | 48.22169 | 33870 ft | 422 kts | 321° |
| 2026-04-27 01:41 | 29.61407 | 48.18842 | 33869 ft | 422 kts | 321° |
| 2026-04-27 01:42 | 29.66502 | 48.15492 | 33870 ft | 422 kts | 321° |
| 2026-04-27 01:42 | 29.71593 | 48.12129 | 33863 ft | 421 kts | 320° |
| 2026-04-27 01:43 | 29.76688 | 48.08761 | 33860 ft | 422 kts | 320° |
| 2026-04-27 01:43 | 29.81751 | 48.05409 | 33860 ft | 422 kts | 320° |
| 2026-04-27 01:44 | 29.85998 | 48.02595 | 33852 ft | 422 kts | 320° |
| 2026-04-27 01:44 | 29.91096 | 47.99211 | 33850 ft | 422 kts | 320° |
| 2026-04-27 01:45 | 29.96189 | 47.95827 | 33856 ft | 422 kts | 320° |
| 2026-04-27 01:45 | 30.01171 | 47.92290 | 33851 ft | 414 kts | 313° |
| 2026-04-27 01:46 | 30.05252 | 47.87795 | 33851 ft | 402 kts | 304° |
| 2026-04-27 01:46 | 30.08932 | 47.82993 | 33850 ft | 401 kts | 303° |
| 2026-04-27 01:47 | 30.12558 | 47.78095 | 33851 ft | 401 kts | 303° |
| 2026-04-27 01:47 | 30.16191 | 47.73199 | 33865 ft | 401 kts | 303° |
| 2026-04-27 01:48 | 30.19841 | 47.68304 | 33869 ft | 402 kts | 303° |
| 2026-04-27 01:48 | 30.23472 | 47.63444 | 33864 ft | 402 kts | 303° |
| 2026-04-27 01:49 | 30.27135 | 47.58534 | 33859 ft | 402 kts | 303° |
| 2026-04-27 01:49 | 30.30794 | 47.53619 | 33860 ft | 403 kts | 303° |
| 2026-04-27 01:50 | 30.34459 | 47.48693 | 33860 ft | 403 kts | 303° |
| 2026-04-27 01:50 | 30.38099 | 47.43800 | 33860 ft | 404 kts | 303° |
| 2026-04-27 01:51 | 30.41766 | 47.38861 | 33851 ft | 404 kts | 303° |
| 2026-04-27 01:51 | 30.45427 | 47.33922 | 33851 ft | 405 kts | 303° |
| 2026-04-27 01:52 | 30.49102 | 47.28957 | 33850 ft | 405 kts | 303° |
| 2026-04-27 01:52 | 30.52757 | 47.24012 | 33852 ft | 405 kts | 303° |
| 2026-04-27 01:53 | 30.56519 | 47.19118 | 33860 ft | 411 kts | 309° |
| 2026-04-27 01:53 | 30.60904 | 47.14742 | 33868 ft | 416 kts | 312° |
| 2026-04-27 01:54 | 30.65426 | 47.10508 | 33869 ft | 417 kts | 313° |
| 2026-04-27 01:54 | 30.69951 | 47.06315 | 33860 ft | 418 kts | 313° |
| 2026-04-27 01:55 | 30.74494 | 47.02087 | 33860 ft | 418 kts | 313° |
| 2026-04-27 01:55 | 30.79031 | 46.97843 | 33860 ft | 418 kts | 313° |
| 2026-04-27 01:56 | 30.85831 | 46.91467 | 33868 ft | 418 kts | 313° |
| 2026-04-27 01:56 | 30.90337 | 46.87230 | 33869 ft | 419 kts | 313° |
| 2026-04-27 01:57 | 30.94880 | 46.82953 | 33870 ft | 419 kts | 313° |
| 2026-04-27 01:57 | 30.99412 | 46.78683 | 33878 ft | 419 kts | 313° |
| 2026-04-27 01:58 | 31.03916 | 46.74437 | 33878 ft | 419 kts | 313° |
| 2026-04-27 01:58 | 31.08460 | 46.70148 | 33878 ft | 419 kts | 313° |
| 2026-04-27 01:59 | 31.12997 | 46.65856 | 33878 ft | 420 kts | 313° |
| 2026-04-27 01:59 | 31.17534 | 46.61559 | 33878 ft | 420 kts | 313° |
| 2026-04-27 02:00 | 31.22050 | 46.57276 | 33878 ft | 420 kts | 313° |
| 2026-04-27 02:00 | 31.26595 | 46.52963 | 33884 ft | 420 kts | 313° |
| 2026-04-27 02:01 | 31.31142 | 46.48644 | 33885 ft | 421 kts | 313° |
| 2026-04-27 02:01 | 31.35690 | 46.44318 | 33888 ft | 422 kts | 313° |
| 2026-04-27 02:02 | 31.40238 | 46.39985 | 33885 ft | 421 kts | 313° |
| 2026-04-27 02:02 | 31.44759 | 46.35676 | 33886 ft | 421 kts | 313° |
| 2026-04-27 02:03 | 31.49312 | 46.31325 | 33890 ft | 421 kts | 313° |
| 2026-04-27 02:03 | 31.53861 | 46.26971 | 33898 ft | 423 kts | 313° |
| 2026-04-27 02:04 | 31.58417 | 46.22610 | 33902 ft | 423 kts | 313° |
| 2026-04-27 02:04 | 31.62952 | 46.18260 | 33899 ft | 423 kts | 313° |
| 2026-04-27 02:05 | 31.67514 | 46.13880 | 33893 ft | 423 kts | 313° |
| 2026-04-27 02:05 | 31.72079 | 46.09490 | 33887 ft | 423 kts | 313° |
| 2026-04-27 02:06 | 31.76604 | 46.05110 | 33895 ft | 423 kts | 313° |
| 2026-04-27 02:06 | 31.81108 | 46.00652 | 33898 ft | 423 kts | 313° |
| 2026-04-27 02:07 | 31.85606 | 45.96175 | 33900 ft | 423 kts | 313° |
| 2026-04-27 02:07 | 31.90113 | 45.91697 | 33900 ft | 423 kts | 313° |
| 2026-04-27 02:08 | 31.94613 | 45.87222 | 33898 ft | 423 kts | 313° |
| 2026-04-27 02:08 | 31.99108 | 45.82747 | 33894 ft | 423 kts | 313° |
| 2026-04-27 02:09 | 32.03577 | 45.78292 | 33897 ft | 423 kts | 313° |
| 2026-04-27 02:09 | 32.08073 | 45.73804 | 33894 ft | 423 kts | 312° |
| 2026-04-27 02:10 | 32.12565 | 45.69313 | 33899 ft | 423 kts | 312° |
| 2026-04-27 02:10 | 32.17065 | 45.64810 | 33898 ft | 424 kts | 312° |
| 2026-04-27 02:11 | 32.21532 | 45.60331 | 33885 ft | 423 kts | 312° |
| 2026-04-27 02:11 | 32.26025 | 45.55820 | 33891 ft | 423 kts | 312° |
| 2026-04-27 02:12 | 32.30516 | 45.51306 | 33887 ft | 424 kts | 312° |
| 2026-04-27 02:12 | 32.35020 | 45.46774 | 33889 ft | 425 kts | 312° |
| 2026-04-27 02:13 | 32.39521 | 45.42240 | 33869 ft | 425 kts | 312° |
| 2026-04-27 02:13 | 32.44002 | 45.37718 | 33870 ft | 425 kts | 312° |
| 2026-04-27 02:14 | 32.48508 | 45.33164 | 33869 ft | 426 kts | 312° |
| 2026-04-27 02:14 | 32.53019 | 45.28602 | 33869 ft | 426 kts | 312° |
| 2026-04-27 02:15 | 32.57804 | 45.24360 | 33869 ft | 432 kts | 317° |
| 2026-04-27 02:15 | 32.62761 | 45.20378 | 33869 ft | 433 kts | 319° |
| 2026-04-27 02:16 | 32.67780 | 45.16414 | 33879 ft | 434 kts | 319° |
| 2026-04-27 02:16 | 32.72809 | 45.12438 | 33878 ft | 434 kts | 319° |
| 2026-04-27 02:17 | 32.77837 | 45.08444 | 33879 ft | 435 kts | 319° |
| 2026-04-27 02:17 | 32.82866 | 45.04439 | 33879 ft | 435 kts | 319° |
| 2026-04-27 02:18 | 32.87892 | 45.00429 | 33878 ft | 435 kts | 319° |
| 2026-04-27 02:18 | 32.92894 | 44.96433 | 33878 ft | 435 kts | 318° |
| 2026-04-27 02:19 | 32.97923 | 44.92411 | 33891 ft | 435 kts | 318° |
| 2026-04-27 02:19 | 33.02958 | 44.88379 | 33886 ft | 436 kts | 318° |
| 2026-04-27 02:20 | 33.08001 | 44.84333 | 33893 ft | 436 kts | 318° |
| 2026-04-27 02:20 | 33.12998 | 44.80320 | 33886 ft | 436 kts | 318° |
| 2026-04-27 02:21 | 33.18081 | 44.76318 | 33884 ft | 441 kts | 323° |
| 2026-04-27 02:21 | 33.23886 | 44.73638 | 33890 ft | 459 kts | 342° |
| 2026-04-27 02:22 | 33.30352 | 44.72927 | 33895 ft | 470 kts | 350° |
| 2026-04-27 02:22 | 33.36886 | 44.72737 | 33895 ft | 472 kts | 352° |
| 2026-04-27 02:23 | 33.43463 | 44.72616 | 33895 ft | 472 kts | 352° |
| 2026-04-27 02:23 | 33.50044 | 44.72451 | 33896 ft | 473 kts | 351° |
| 2026-04-27 02:24 | 33.56590 | 44.72252 | 33907 ft | 472 kts | 351° |
| 2026-04-27 02:24 | 33.63173 | 44.72040 | 33909 ft | 472 kts | 351° |
| 2026-04-27 02:25 | 33.69753 | 44.71827 | 33915 ft | 473 kts | 351° |
| 2026-04-27 02:25 | 33.76301 | 44.71619 | 33915 ft | 473 kts | 351° |
| 2026-04-27 02:26 | 33.82901 | 44.71411 | 33924 ft | 473 kts | 351° |
| 2026-04-27 02:26 | 33.89490 | 44.71196 | 33925 ft | 473 kts | 351° |
| 2026-04-27 02:27 | 33.96077 | 44.70989 | 33929 ft | 473 kts | 352° |
| 2026-04-27 02:27 | 34.02627 | 44.70785 | 33934 ft | 473 kts | 352° |
| 2026-04-27 02:28 | 34.09230 | 44.70576 | 33933 ft | 475 kts | 352° |
| 2026-04-27 02:28 | 34.15852 | 44.70366 | 33954 ft | 475 kts | 352° |
| 2026-04-27 02:29 | 34.22465 | 44.70155 | 33945 ft | 475 kts | 352° |
| 2026-04-27 02:29 | 34.29048 | 44.69944 | 33943 ft | 475 kts | 352° |
| 2026-04-27 02:30 | 34.35662 | 44.69733 | 33936 ft | 475 kts | 352° |
| 2026-04-27 02:30 | 34.42233 | 44.69523 | 33949 ft | 475 kts | 352° |
| 2026-04-27 02:31 | 34.48832 | 44.69180 | 33953 ft | 470 kts | 346° |
| 2026-04-27 02:31 | 34.55036 | 44.67179 | 33954 ft | 458 kts | 333° |
| 2026-04-27 02:32 | 34.60985 | 44.64440 | 33953 ft | 456 kts | 331° |
| 2026-04-27 02:32 | 34.65891 | 44.62045 | 33958 ft | 456 kts | 331° |
| 2026-04-27 02:33 | 34.71789 | 44.59155 | 33953 ft | 457 kts | 331° |
| 2026-04-27 02:33 | 34.77669 | 44.56299 | 33951 ft | 457 kts | 331° |
| 2026-04-27 02:34 | 34.83592 | 44.53436 | 33953 ft | 458 kts | 332° |
| 2026-04-27 02:34 | 34.89524 | 44.50567 | 33948 ft | 458 kts | 332° |
| 2026-04-27 02:35 | 34.95453 | 44.47694 | 33951 ft | 458 kts | 332° |
| 2026-04-27 02:35 | 35.01348 | 44.44831 | 33948 ft | 458 kts | 332° |
| 2026-04-27 02:36 | 35.07287 | 44.41944 | 33934 ft | 459 kts | 332° |
| 2026-04-27 02:36 | 35.13187 | 44.39069 | 33934 ft | 459 kts | 332° |
| 2026-04-27 02:37 | 35.19126 | 44.36171 | 33935 ft | 459 kts | 332° |
| 2026-04-27 02:37 | 35.25073 | 44.33266 | 33926 ft | 460 kts | 332° |
| 2026-04-27 02:38 | 35.31005 | 44.30329 | 33924 ft | 460 kts | 331° |
| 2026-04-27 02:38 | 35.36869 | 44.27318 | 33924 ft | 460 kts | 331° |
| 2026-04-27 02:39 | 35.42762 | 44.24264 | 33934 ft | 460 kts | 331° |
| 2026-04-27 02:39 | 35.48679 | 44.21206 | 33921 ft | 460 kts | 331° |
| 2026-04-27 02:40 | 35.54591 | 44.18154 | 33916 ft | 461 kts | 332° |
| 2026-04-27 02:40 | 35.60467 | 44.15116 | 33916 ft | 461 kts | 332° |
| 2026-04-27 02:41 | 35.66381 | 44.12055 | 33915 ft | 461 kts | 332° |
| 2026-04-27 02:41 | 35.72307 | 44.08981 | 33916 ft | 461 kts | 332° |
| 2026-04-27 02:42 | 35.78225 | 44.05906 | 33915 ft | 461 kts | 332° |
| 2026-04-27 02:42 | 35.84145 | 44.02824 | 33915 ft | 462 kts | 332° |
| 2026-04-27 02:43 | 35.90035 | 43.99754 | 33916 ft | 462 kts | 332° |
| 2026-04-27 02:43 | 35.95959 | 43.96663 | 33915 ft | 462 kts | 332° |
| 2026-04-27 02:44 | 36.01890 | 43.93562 | 33916 ft | 462 kts | 332° |
| 2026-04-27 02:44 | 36.07809 | 43.90461 | 33915 ft | 462 kts | 332° |
| 2026-04-27 02:45 | 36.13696 | 43.87374 | 33916 ft | 462 kts | 332° |
| 2026-04-27 02:45 | 36.19614 | 43.84264 | 33916 ft | 462 kts | 332° |
| 2026-04-27 02:46 | 36.25528 | 43.81150 | 33916 ft | 462 kts | 332° |
| 2026-04-27 02:46 | 36.31463 | 43.78049 | 33916 ft | 462 kts | 332° |
| 2026-04-27 02:47 | 36.37397 | 43.74979 | 33915 ft | 462 kts | 332° |
| 2026-04-27 02:47 | 36.43304 | 43.71921 | 33916 ft | 462 kts | 332° |
| 2026-04-27 02:48 | 36.49239 | 43.68841 | 33915 ft | 462 kts | 332° |
| 2026-04-27 02:48 | 36.55172 | 43.65755 | 33916 ft | 462 kts | 332° |
| 2026-04-27 02:49 | 36.61115 | 43.62657 | 33924 ft | 462 kts | 332° |
| 2026-04-27 02:49 | 36.67048 | 43.59558 | 33924 ft | 462 kts | 332° |
| 2026-04-27 02:50 | 36.72982 | 43.56457 | 33925 ft | 462 kts | 332° |
| 2026-04-27 02:50 | 36.78855 | 43.53284 | 33934 ft | 461 kts | 330° |
| 2026-04-27 02:51 | 36.84707 | 43.50002 | 33937 ft | 461 kts | 330° |
| 2026-04-27 02:51 | 36.90563 | 43.46706 | 33950 ft | 461 kts | 330° |
| 2026-04-27 02:52 | 36.96427 | 43.43413 | 33952 ft | 461 kts | 330° |
| 2026-04-27 02:52 | 37.02253 | 43.40147 | 33949 ft | 462 kts | 330° |
| 2026-04-27 02:53 | 37.08118 | 43.36854 | 33947 ft | 461 kts | 330° |
| 2026-04-27 02:53 | 37.13986 | 43.33550 | 33949 ft | 461 kts | 330° |
| 2026-04-27 02:54 | 37.19856 | 43.30238 | 33956 ft | 462 kts | 330° |
| 2026-04-27 02:54 | 37.25687 | 43.26943 | 33979 ft | 462 kts | 330° |
| 2026-04-27 02:55 | 37.31439 | 43.23404 | 33976 ft | 455 kts | 321° |
| 2026-04-27 02:55 | 37.36087 | 43.18266 | 33981 ft | 438 kts | 302° |
| 2026-04-27 02:56 | 37.39300 | 43.11864 | 33997 ft | 431 kts | 293° |
| 2026-04-27 02:56 | 37.42115 | 43.05259 | 34000 ft | 431 kts | 292° |
| 2026-04-27 02:57 | 37.44895 | 42.98577 | 33993 ft | 431 kts | 292° |
| 2026-04-27 02:57 | 37.47702 | 42.91891 | 34006 ft | 432 kts | 292° |
| 2026-04-27 02:58 | 37.50532 | 42.85202 | 34007 ft | 432 kts | 292° |
| 2026-04-27 02:58 | 37.53359 | 42.78523 | 33992 ft | 432 kts | 292° |
| 2026-04-27 02:59 | 37.56169 | 42.71862 | 33990 ft | 433 kts | 292° |
| 2026-04-27 02:59 | 37.59002 | 42.65137 | 33990 ft | 433 kts | 292° |
| 2026-04-27 03:00 | 37.61836 | 42.58414 | 33989 ft | 434 kts | 292° |
| 2026-04-27 03:00 | 37.64653 | 42.51718 | 33993 ft | 434 kts | 291° |
| 2026-04-27 03:01 | 37.67490 | 42.44965 | 33989 ft | 435 kts | 291° |
| 2026-04-27 03:01 | 37.70303 | 42.38245 | 33981 ft | 434 kts | 291° |
| 2026-04-27 03:02 | 37.73124 | 42.31473 | 33979 ft | 435 kts | 291° |
| 2026-04-27 03:02 | 37.75945 | 42.24708 | 33982 ft | 435 kts | 291° |
| 2026-04-27 03:03 | 37.80187 | 42.14535 | 33979 ft | 435 kts | 291° |
| 2026-04-27 03:04 | 37.82987 | 42.07794 | 33981 ft | 435 kts | 291° |
| 2026-04-27 03:04 | 37.85790 | 42.01011 | 33991 ft | 435 kts | 291° |
| 2026-04-27 03:05 | 37.88600 | 41.94201 | 33989 ft | 436 kts | 291° |
| 2026-04-27 03:05 | 37.91712 | 41.87562 | 34006 ft | 444 kts | 302° |
| 2026-04-27 03:06 | 37.95674 | 41.81512 | 34007 ft | 447 kts | 304° |
| 2026-04-27 03:06 | 37.99774 | 41.75633 | 34007 ft | 448 kts | 305° |
| 2026-04-27 03:07 | 38.03932 | 41.69716 | 34007 ft | 448 kts | 305° |
| 2026-04-27 03:07 | 38.08065 | 41.63792 | 34009 ft | 447 kts | 305° |
| 2026-04-27 03:08 | 38.12151 | 41.57896 | 34011 ft | 447 kts | 304° |
| 2026-04-27 03:08 | 38.16252 | 41.51954 | 34013 ft | 447 kts | 305° |
| 2026-04-27 03:09 | 38.20360 | 41.45993 | 34013 ft | 448 kts | 305° |
| 2026-04-27 03:09 | 38.24458 | 41.40042 | 34019 ft | 447 kts | 305° |
| 2026-04-27 03:10 | 38.28519 | 41.34140 | 34024 ft | 446 kts | 305° |
| 2026-04-27 03:10 | 38.32609 | 41.28183 | 34027 ft | 446 kts | 305° |
| 2026-04-27 03:11 | 38.36692 | 41.22224 | 34027 ft | 446 kts | 305° |
| 2026-04-27 03:11 | 38.40768 | 41.16262 | 34041 ft | 446 kts | 305° |
| 2026-04-27 03:12 | 38.44841 | 41.10290 | 34044 ft | 446 kts | 305° |
| 2026-04-27 03:12 | 38.48849 | 41.04317 | 34040 ft | 445 kts | 304° |
| 2026-04-27 03:13 | 38.52815 | 40.98256 | 34048 ft | 444 kts | 304° |
| 2026-04-27 03:13 | 38.56768 | 40.92178 | 34030 ft | 444 kts | 305° |
| 2026-04-27 03:14 | 38.60735 | 40.86078 | 34033 ft | 447 kts | 305° |
| 2026-04-27 03:14 | 38.64705 | 40.80007 | 34047 ft | 448 kts | 306° |
| 2026-04-27 03:15 | 38.68739 | 40.73916 | 34043 ft | 448 kts | 306° |
| 2026-04-27 03:15 | 38.72782 | 40.67817 | 34030 ft | 448 kts | 306° |
| 2026-04-27 03:16 | 38.76816 | 40.61713 | 34042 ft | 448 kts | 306° |
| 2026-04-27 03:16 | 38.80816 | 40.55641 | 34054 ft | 448 kts | 306° |
| 2026-04-27 03:17 | 38.84839 | 40.49521 | 34052 ft | 447 kts | 306° |
| 2026-04-27 03:17 | 38.88824 | 40.43449 | 34056 ft | 447 kts | 306° |
| 2026-04-27 03:18 | 38.92822 | 40.37341 | 34063 ft | 446 kts | 306° |
| 2026-04-27 03:18 | 38.96814 | 40.31228 | 34062 ft | 445 kts | 306° |
| 2026-04-27 03:19 | 39.00774 | 40.25158 | 34072 ft | 444 kts | 306° |
| 2026-04-27 03:19 | 39.04743 | 40.19064 | 34073 ft | 443 kts | 306° |
| 2026-04-27 03:20 | 39.08699 | 40.12969 | 34059 ft | 443 kts | 306° |
| 2026-04-27 03:20 | 39.12645 | 40.06886 | 34053 ft | 441 kts | 306° |
| 2026-04-27 03:21 | 39.15915 | 40.01838 | 34064 ft | 440 kts | 306° |
| 2026-04-27 03:21 | 39.20469 | 39.94791 | 34062 ft | 439 kts | 306° |
| 2026-04-27 03:22 | 39.24373 | 39.88730 | 34065 ft | 438 kts | 306° |
| 2026-04-27 03:22 | 39.27608 | 39.83697 | 34065 ft | 437 kts | 306° |
| 2026-04-27 03:23 | 39.31493 | 39.77647 | 34066 ft | 437 kts | 307° |
| 2026-04-27 03:23 | 39.35374 | 39.71589 | 34063 ft | 436 kts | 306° |
| 2026-04-27 03:24 | 39.39236 | 39.65551 | 34072 ft | 435 kts | 306° |
| 2026-04-27 03:24 | 39.43065 | 39.59550 | 34072 ft | 434 kts | 306° |
| 2026-04-27 03:25 | 39.46913 | 39.53509 | 34075 ft | 434 kts | 306° |
| 2026-04-27 03:25 | 39.50753 | 39.47469 | 34072 ft | 434 kts | 306° |
| 2026-04-27 03:26 | 39.54535 | 39.41435 | 34071 ft | 434 kts | 306° |
| 2026-04-27 03:26 | 39.58321 | 39.35325 | 34075 ft | 433 kts | 306° |
| 2026-04-27 03:27 | 39.62100 | 39.29221 | 34074 ft | 433 kts | 306° |
| 2026-04-27 03:27 | 39.65849 | 39.23163 | 34073 ft | 433 kts | 306° |
| 2026-04-27 03:28 | 39.69619 | 39.17055 | 34074 ft | 433 kts | 306° |
| 2026-04-27 03:28 | 39.73389 | 39.10951 | 34075 ft | 433 kts | 306° |
| 2026-04-27 03:29 | 39.77194 | 39.04876 | 34071 ft | 433 kts | 307° |
| 2026-04-27 03:29 | 39.81007 | 38.98806 | 34073 ft | 432 kts | 307° |
| 2026-04-27 03:30 | 39.84786 | 38.92773 | 34076 ft | 432 kts | 307° |
| 2026-04-27 03:30 | 39.88582 | 38.86697 | 34072 ft | 432 kts | 307° |
| 2026-04-27 03:31 | 39.92373 | 38.80613 | 34072 ft | 431 kts | 307° |
| 2026-04-27 03:31 | 39.96150 | 38.74540 | 34072 ft | 430 kts | 307° |
| 2026-04-27 03:32 | 39.99897 | 38.68502 | 34075 ft | 430 kts | 307° |
| 2026-04-27 03:32 | 40.03657 | 38.62431 | 34071 ft | 427 kts | 307° |
| 2026-04-27 03:33 | 40.07386 | 38.56403 | 34077 ft | 426 kts | 307° |
| 2026-04-27 03:33 | 40.11082 | 38.50410 | 34084 ft | 425 kts | 307° |
| 2026-04-27 03:34 | 40.14796 | 38.44382 | 34084 ft | 425 kts | 307° |
| 2026-04-27 03:34 | 40.18506 | 38.38347 | 34086 ft | 425 kts | 307° |
| 2026-04-27 03:35 | 40.22183 | 38.32354 | 34078 ft | 425 kts | 307° |
| 2026-04-27 03:35 | 40.25879 | 38.26319 | 34083 ft | 424 kts | 307° |
| 2026-04-27 03:36 | 40.29581 | 38.20263 | 34079 ft | 424 kts | 307° |
| 2026-04-27 03:36 | 40.32918 | 38.13916 | 34080 ft | 423 kts | 296° |
| 2026-04-27 03:37 | 40.35282 | 38.06909 | 34081 ft | 423 kts | 292° |
| 2026-04-27 03:37 | 40.37452 | 37.99726 | 34087 ft | 423 kts | 291° |
| 2026-04-27 03:38 | 40.39578 | 37.92528 | 34080 ft | 423 kts | 291° |
| 2026-04-27 03:38 | 40.41719 | 37.85318 | 34084 ft | 424 kts | 291° |
| 2026-04-27 03:39 | 40.43870 | 37.78112 | 34082 ft | 423 kts | 291° |
| 2026-04-27 03:39 | 40.46005 | 37.70954 | 34083 ft | 424 kts | 291° |
| 2026-04-27 03:40 | 40.48152 | 37.63730 | 34083 ft | 424 kts | 291° |
| 2026-04-27 03:40 | 40.50301 | 37.56491 | 34084 ft | 425 kts | 291° |
| 2026-04-27 03:41 | 40.52445 | 37.49248 | 34086 ft | 425 kts | 291° |
| 2026-04-27 03:41 | 40.54588 | 37.41984 | 34096 ft | 426 kts | 291° |
| 2026-04-27 03:42 | 40.56711 | 37.34765 | 34033 ft | 426 kts | 291° |
| 2026-04-27 03:42 | 40.58846 | 37.27493 | 34030 ft | 426 kts | 291° |
| 2026-04-27 03:43 | 40.60980 | 37.20201 | 34014 ft | 427 kts | 291° |
| 2026-04-27 03:43 | 40.63107 | 37.12898 | 34018 ft | 427 kts | 291° |
| 2026-04-27 03:44 | 40.65236 | 37.05587 | 34019 ft | 428 kts | 291° |
| 2026-04-27 03:44 | 40.67364 | 36.98266 | 34009 ft | 428 kts | 290° |
| 2026-04-27 03:45 | 40.69484 | 36.90947 | 34009 ft | 428 kts | 290° |
| 2026-04-27 03:45 | 40.71589 | 36.83645 | 34027 ft | 429 kts | 290° |
| 2026-04-27 03:46 | 40.73706 | 36.76282 | 34031 ft | 429 kts | 290° |
| 2026-04-27 03:46 | 40.75818 | 36.68924 | 34022 ft | 429 kts | 290° |
| 2026-04-27 03:47 | 40.77931 | 36.61545 | 34035 ft | 429 kts | 290° |
| 2026-04-27 03:47 | 40.80017 | 36.54233 | 34037 ft | 429 kts | 290° |
| 2026-04-27 03:48 | 40.82120 | 36.46843 | 34048 ft | 430 kts | 290° |
| 2026-04-27 03:48 | 40.84219 | 36.39449 | 34043 ft | 430 kts | 290° |
| 2026-04-27 03:49 | 40.86311 | 36.32052 | 34054 ft | 430 kts | 290° |
| 2026-04-27 03:49 | 40.88402 | 36.24645 | 34055 ft | 430 kts | 290° |
| 2026-04-27 03:50 | 40.90471 | 36.17285 | 34055 ft | 430 kts | 290° |
| 2026-04-27 03:50 | 40.92552 | 36.09868 | 34062 ft | 430 kts | 290° |
| 2026-04-27 03:51 | 40.94630 | 36.02439 | 34064 ft | 430 kts | 290° |
| 2026-04-27 03:51 | 40.96705 | 35.94997 | 34064 ft | 432 kts | 290° |
| 2026-04-27 03:52 | 40.98780 | 35.87530 | 34064 ft | 433 kts | 290° |
| 2026-04-27 03:52 | 41.00845 | 35.80084 | 34064 ft | 433 kts | 290° |
| 2026-04-27 03:53 | 41.02923 | 35.72579 | 34074 ft | 434 kts | 290° |
| 2026-04-27 03:53 | 41.04997 | 35.65062 | 34073 ft | 434 kts | 290° |
| 2026-04-27 03:54 | 41.07063 | 35.57548 | 34070 ft | 434 kts | 290° |
| 2026-04-27 03:54 | 41.09115 | 35.50067 | 34073 ft | 434 kts | 290° |
| 2026-04-27 03:55 | 41.11175 | 35.42531 | 34072 ft | 435 kts | 290° |
| 2026-04-27 03:55 | 41.13232 | 35.34981 | 34072 ft | 435 kts | 290° |
| 2026-04-27 03:56 | 41.15285 | 35.27420 | 34071 ft | 435 kts | 290° |
| 2026-04-27 03:56 | 41.17321 | 35.19902 | 34064 ft | 435 kts | 290° |
| 2026-04-27 03:57 | 41.19366 | 35.12335 | 34064 ft | 435 kts | 290° |
| 2026-04-27 03:57 | 41.21407 | 35.04753 | 34064 ft | 436 kts | 290° |
| 2026-04-27 03:58 | 41.23448 | 34.97149 | 34050 ft | 436 kts | 290° |
| 2026-04-27 03:58 | 41.25480 | 34.89553 | 34047 ft | 436 kts | 290° |
| 2026-04-27 03:59 | 41.27496 | 34.82001 | 34044 ft | 436 kts | 290° |
| 2026-04-27 03:59 | 41.29528 | 34.74376 | 34046 ft | 437 kts | 290° |
| 2026-04-27 04:00 | 41.31556 | 34.66745 | 34032 ft | 437 kts | 289° |
| 2026-04-27 04:00 | 41.33579 | 34.59113 | 34046 ft | 437 kts | 289° |
| 2026-04-27 04:01 | 41.35584 | 34.51515 | 34047 ft | 437 kts | 289° |
| 2026-04-27 04:01 | 41.37601 | 34.43858 | 34047 ft | 437 kts | 289° |
| 2026-04-27 04:02 | 41.39606 | 34.36217 | 34036 ft | 437 kts | 289° |
| 2026-04-27 04:02 | 41.41590 | 34.28615 | 34032 ft | 437 kts | 289° |
| 2026-04-27 04:03 | 41.43573 | 34.20944 | 34036 ft | 437 kts | 289° |
| 2026-04-27 04:03 | 41.45549 | 34.13276 | 34046 ft | 437 kts | 289° |
| 2026-04-27 04:04 | 41.47512 | 34.05647 | 34045 ft | 437 kts | 289° |
| 2026-04-27 04:04 | 41.49486 | 33.97971 | 34046 ft | 437 kts | 289° |
| 2026-04-27 04:05 | 41.51457 | 33.90289 | 34047 ft | 437 kts | 289° |
| 2026-04-27 04:05 | 41.53420 | 33.82610 | 34046 ft | 437 kts | 289° |
| 2026-04-27 04:06 | 41.55368 | 33.74964 | 34045 ft | 437 kts | 289° |
| 2026-04-27 04:06 | 41.57322 | 33.67267 | 34046 ft | 437 kts | 289° |
| 2026-04-27 04:07 | 41.60246 | 33.55720 | 34045 ft | 437 kts | 289° |
| 2026-04-27 04:07 | 41.61864 | 33.49312 | 34045 ft | 437 kts | 289° |
| 2026-04-27 04:08 | 41.63805 | 33.41584 | 34047 ft | 437 kts | 289° |
| 2026-04-27 04:08 | 41.65730 | 33.33878 | 34050 ft | 436 kts | 289° |
| 2026-04-27 04:09 | 41.67652 | 33.26170 | 34030 ft | 436 kts | 288° |
| 2026-04-27 04:09 | 41.69557 | 33.18518 | 34032 ft | 436 kts | 288° |
| 2026-04-27 04:10 | 41.71467 | 33.10809 | 34027 ft | 435 kts | 288° |
| 2026-04-27 04:10 | 41.73370 | 33.03110 | 34021 ft | 435 kts | 288° |
| 2026-04-27 04:11 | 41.75266 | 32.95414 | 34017 ft | 435 kts | 288° |
| 2026-04-27 04:11 | 41.77145 | 32.87760 | 34021 ft | 434 kts | 288° |
| 2026-04-27 04:12 | 41.79026 | 32.80075 | 34012 ft | 434 kts | 288° |
| 2026-04-27 04:12 | 41.80905 | 32.72376 | 34008 ft | 433 kts | 288° |
| 2026-04-27 04:13 | 41.82774 | 32.64682 | 34001 ft | 433 kts | 288° |
| 2026-04-27 04:13 | 41.84621 | 32.57050 | 33999 ft | 432 kts | 288° |
| 2026-04-27 04:14 | 41.86469 | 32.49388 | 33999 ft | 431 kts | 288° |
| 2026-04-27 04:14 | 41.88311 | 32.41714 | 33991 ft | 431 kts | 288° |
| 2026-04-27 04:15 | 41.90128 | 32.34091 | 33989 ft | 430 kts | 288° |
| 2026-04-27 04:15 | 41.91968 | 32.26432 | 33990 ft | 430 kts | 288° |
| 2026-04-27 04:16 | 41.93803 | 32.18770 | 33990 ft | 430 kts | 288° |
| 2026-04-27 04:16 | 41.95618 | 32.11117 | 33981 ft | 429 kts | 288° |
| 2026-04-27 04:17 | 41.97428 | 32.03460 | 33980 ft | 429 kts | 288° |
| 2026-04-27 04:17 | 41.99219 | 31.95848 | 33980 ft | 429 kts | 288° |
| 2026-04-27 04:18 | 42.01016 | 31.88187 | 33980 ft | 429 kts | 288° |
| 2026-04-27 04:18 | 42.02814 | 31.80517 | 33984 ft | 429 kts | 288° |
| 2026-04-27 04:19 | 42.04610 | 31.72839 | 33996 ft | 429 kts | 288° |
| 2026-04-27 04:19 | 42.06382 | 31.65234 | 33999 ft | 428 kts | 287° |
| 2026-04-27 04:20 | 42.08161 | 31.57571 | 34008 ft | 427 kts | 287° |
| 2026-04-27 04:20 | 42.09928 | 31.49934 | 34008 ft | 427 kts | 287° |
| 2026-04-27 04:21 | 42.11680 | 31.42331 | 34015 ft | 426 kts | 287° |
| 2026-04-27 04:21 | 42.13433 | 31.34704 | 34019 ft | 425 kts | 287° |
| 2026-04-27 04:22 | 42.15179 | 31.27079 | 34031 ft | 425 kts | 287° |
| 2026-04-27 04:22 | 42.16916 | 31.19458 | 34028 ft | 424 kts | 287° |
| 2026-04-27 04:23 | 42.18646 | 31.11855 | 34048 ft | 424 kts | 287° |
| 2026-04-27 04:23 | 42.20362 | 31.04283 | 34044 ft | 423 kts | 287° |
| 2026-04-27 04:24 | 42.22076 | 30.96677 | 34054 ft | 423 kts | 287° |
| 2026-04-27 04:24 | 42.23783 | 30.89087 | 34062 ft | 423 kts | 287° |
| 2026-04-27 04:25 | 42.25481 | 30.81520 | 34070 ft | 423 kts | 287° |
| 2026-04-27 04:25 | 42.27182 | 30.73905 | 34077 ft | 423 kts | 287° |
| 2026-04-27 04:26 | 42.28878 | 30.66281 | 34081 ft | 424 kts | 287° |
| 2026-04-27 04:26 | 42.30570 | 30.58653 | 34090 ft | 424 kts | 287° |
| 2026-04-27 04:27 | 42.32260 | 30.51016 | 34101 ft | 424 kts | 287° |
| 2026-04-27 04:27 | 42.33938 | 30.43401 | 34110 ft | 425 kts | 287° |
| 2026-04-27 04:28 | 42.35623 | 30.35726 | 34118 ft | 426 kts | 287° |
| 2026-04-27 04:28 | 42.37304 | 30.28047 | 34123 ft | 426 kts | 287° |
| 2026-04-27 04:29 | 42.38979 | 30.20357 | 34127 ft | 426 kts | 287° |
| 2026-04-27 04:29 | 42.40640 | 30.12707 | 34138 ft | 426 kts | 287° |
| 2026-04-27 04:30 | 42.42309 | 30.04997 | 34146 ft | 426 kts | 287° |
| 2026-04-27 04:30 | 42.43975 | 29.97271 | 34234 ft | 426 kts | 286° |
| 2026-04-27 04:31 | 42.45642 | 29.89604 | 34243 ft | 426 kts | 289° |
| 2026-04-27 04:31 | 42.48077 | 29.82275 | 34247 ft | 426 kts | 297° |
| 2026-04-27 04:32 | 42.50829 | 29.75230 | 34249 ft | 425 kts | 298° |
| 2026-04-27 04:32 | 42.53655 | 29.68179 | 34247 ft | 425 kts | 298° |
| 2026-04-27 04:33 | 42.56470 | 29.61136 | 34249 ft | 424 kts | 297° |
| 2026-04-27 04:33 | 42.59296 | 29.54114 | 34247 ft | 423 kts | 299° |
| 2026-04-27 04:34 | 42.62280 | 29.47279 | 34257 ft | 422 kts | 300° |
| 2026-04-27 04:34 | 42.65330 | 29.40456 | 34256 ft | 422 kts | 300° |
| 2026-04-27 04:35 | 42.68362 | 29.33621 | 34257 ft | 421 kts | 300° |
| 2026-04-27 04:35 | 42.71350 | 29.26828 | 34255 ft | 420 kts | 300° |
| 2026-04-27 04:36 | 42.74333 | 29.20012 | 34256 ft | 419 kts | 300° |
| 2026-04-27 04:36 | 42.77316 | 29.13181 | 34266 ft | 419 kts | 299° |
| 2026-04-27 04:37 | 42.80288 | 29.06360 | 34267 ft | 419 kts | 299° |
| 2026-04-27 04:37 | 42.83260 | 28.99527 | 34266 ft | 418 kts | 299° |
| 2026-04-27 04:38 | 42.86203 | 28.92743 | 34266 ft | 418 kts | 299° |
| 2026-04-27 04:38 | 42.89159 | 28.85921 | 34275 ft | 417 kts | 299° |
| 2026-04-27 04:39 | 42.92107 | 28.79090 | 34276 ft | 417 kts | 299° |
| 2026-04-27 04:39 | 42.95050 | 28.72258 | 34284 ft | 417 kts | 299° |
| 2026-04-27 04:40 | 42.97983 | 28.65431 | 34284 ft | 416 kts | 299° |
| 2026-04-27 04:40 | 43.00897 | 28.58639 | 34285 ft | 416 kts | 299° |
| 2026-04-27 04:41 | 43.03822 | 28.51806 | 34284 ft | 416 kts | 298° |
| 2026-04-27 04:41 | 43.06734 | 28.44981 | 34284 ft | 415 kts | 298° |
| 2026-04-27 04:42 | 43.09642 | 28.38153 | 34284 ft | 415 kts | 298° |
| 2026-04-27 04:42 | 43.12539 | 28.31331 | 34296 ft | 414 kts | 298° |
| 2026-04-27 04:43 | 43.15411 | 28.24552 | 34292 ft | 413 kts | 298° |
| 2026-04-27 04:43 | 43.18297 | 28.17730 | 34293 ft | 413 kts | 298° |
| 2026-04-27 04:44 | 43.21169 | 28.10922 | 34291 ft | 412 kts | 298° |
| 2026-04-27 04:44 | 43.24037 | 28.04106 | 34297 ft | 412 kts | 298° |
| 2026-04-27 04:45 | 43.26892 | 27.97305 | 34297 ft | 411 kts | 298° |
| 2026-04-27 04:45 | 43.29741 | 27.90505 | 34292 ft | 411 kts | 298° |
| 2026-04-27 04:46 | 43.32589 | 27.83693 | 34296 ft | 410 kts | 298° |
| 2026-04-27 04:46 | 43.35422 | 27.76896 | 34291 ft | 410 kts | 298° |
| 2026-04-27 04:47 | 43.38250 | 27.70096 | 34294 ft | 410 kts | 298° |
| 2026-04-27 04:47 | 43.41067 | 27.63313 | 34292 ft | 410 kts | 297° |
| 2026-04-27 04:48 | 43.43891 | 27.56499 | 34294 ft | 409 kts | 297° |
| 2026-04-27 04:48 | 43.46701 | 27.49688 | 34293 ft | 409 kts | 297° |
| 2026-04-27 04:49 | 43.49514 | 27.42854 | 34299 ft | 411 kts | 297° |
| 2026-04-27 04:49 | 43.52331 | 27.36007 | 34293 ft | 410 kts | 297° |
| 2026-04-27 04:50 | 43.55123 | 27.29193 | 34290 ft | 410 kts | 297° |
| 2026-04-27 04:50 | 43.57927 | 27.22335 | 34291 ft | 410 kts | 297° |
| 2026-04-27 04:51 | 43.60727 | 27.15473 | 34293 ft | 410 kts | 297° |
| 2026-04-27 04:51 | 43.63523 | 27.08605 | 34295 ft | 410 kts | 297° |
| 2026-04-27 04:52 | 43.65845 | 27.02891 | 34291 ft | 410 kts | 297° |
| 2026-04-27 04:52 | 43.68632 | 26.96015 | 34294 ft | 410 kts | 297° |
| 2026-04-27 04:53 | 43.71871 | 26.88008 | 34291 ft | 410 kts | 297° |
| 2026-04-27 04:53 | 43.74179 | 26.82285 | 34295 ft | 409 kts | 297° |
| 2026-04-27 04:54 | 43.76946 | 26.75402 | 34293 ft | 409 kts | 297° |
| 2026-04-27 04:54 | 43.79718 | 26.68498 | 34309 ft | 410 kts | 297° |
| 2026-04-27 04:55 | 43.82484 | 26.61594 | 34302 ft | 410 kts | 297° |
| 2026-04-27 04:55 | 43.85226 | 26.54730 | 34310 ft | 409 kts | 297° |
| 2026-04-27 04:56 | 43.87974 | 26.47837 | 34300 ft | 409 kts | 297° |
| 2026-04-27 04:56 | 43.90718 | 26.40938 | 34301 ft | 408 kts | 297° |
| 2026-04-27 04:57 | 43.93459 | 26.34023 | 34298 ft | 408 kts | 297° |
| 2026-04-27 04:57 | 43.96194 | 26.27106 | 34300 ft | 407 kts | 297° |
| 2026-04-27 04:58 | 43.99142 | 26.20372 | 34311 ft | 409 kts | 303° |
| 2026-04-27 04:58 | 44.02509 | 26.14051 | 34308 ft | 410 kts | 304° |
| 2026-04-27 04:59 | 44.05978 | 26.07755 | 34320 ft | 410 kts | 304° |
| 2026-04-27 04:59 | 44.09451 | 26.01465 | 34313 ft | 409 kts | 304° |
| 2026-04-27 05:00 | 44.12917 | 25.95155 | 34312 ft | 410 kts | 304° |
| 2026-04-27 05:00 | 44.16369 | 25.88841 | 34311 ft | 409 kts | 304° |
| 2026-04-27 05:01 | 44.19792 | 25.82562 | 34309 ft | 409 kts | 304° |
| 2026-04-27 05:01 | 44.23241 | 25.76223 | 34313 ft | 410 kts | 304° |
| 2026-04-27 05:02 | 44.26687 | 25.69876 | 34315 ft | 409 kts | 304° |
| 2026-04-27 05:03 | 44.31817 | 25.60407 | 34326 ft | 409 kts | 304° |
| 2026-04-27 05:03 | 44.35243 | 25.54063 | 34328 ft | 408 kts | 304° |
| 2026-04-27 05:04 | 44.38659 | 25.47723 | 34333 ft | 408 kts | 304° |
| 2026-04-27 05:04 | 44.42073 | 25.41373 | 34329 ft | 408 kts | 304° |
| 2026-04-27 05:05 | 44.45480 | 25.35020 | 34320 ft | 407 kts | 304° |
| 2026-04-27 05:05 | 44.48858 | 25.28714 | 34322 ft | 407 kts | 304° |
| 2026-04-27 05:06 | 44.52251 | 25.22362 | 34318 ft | 407 kts | 304° |
| 2026-04-27 05:06 | 44.55643 | 25.16000 | 34323 ft | 407 kts | 304° |
| 2026-04-27 05:07 | 44.59032 | 25.09623 | 34319 ft | 407 kts | 304° |
| 2026-04-27 05:07 | 44.62414 | 25.03248 | 34309 ft | 407 kts | 304° |
| 2026-04-27 05:08 | 44.65776 | 24.96899 | 34315 ft | 407 kts | 304° |
| 2026-04-27 05:08 | 44.69158 | 24.90500 | 34310 ft | 407 kts | 304° |
| 2026-04-27 05:09 | 44.72535 | 24.84092 | 34300 ft | 407 kts | 304° |
| 2026-04-27 05:09 | 44.75884 | 24.77724 | 34310 ft | 407 kts | 303° |
| 2026-04-27 05:10 | 44.79250 | 24.71308 | 34313 ft | 407 kts | 303° |
| 2026-04-27 05:10 | 44.82613 | 24.64886 | 34311 ft | 407 kts | 303° |
| 2026-04-27 05:11 | 44.85970 | 24.58469 | 34304 ft | 407 kts | 303° |
| 2026-04-27 05:11 | 44.89321 | 24.52045 | 34291 ft | 406 kts | 303° |
| 2026-04-27 05:12 | 44.92669 | 24.45603 | 34298 ft | 406 kts | 303° |
| 2026-04-27 05:12 | 44.96007 | 24.39167 | 34293 ft | 406 kts | 303° |
| 2026-04-27 05:13 | 44.99342 | 24.32725 | 34293 ft | 406 kts | 303° |
| 2026-04-27 05:13 | 45.02646 | 24.26324 | 34316 ft | 405 kts | 303° |
| 2026-04-27 05:14 | 45.05967 | 24.19883 | 34311 ft | 404 kts | 303° |
| 2026-04-27 05:14 | 45.09254 | 24.13493 | 34302 ft | 404 kts | 303° |
| 2026-04-27 05:15 | 45.12560 | 24.07052 | 34296 ft | 404 kts | 303° |
| 2026-04-27 05:15 | 45.15859 | 24.00606 | 34299 ft | 403 kts | 303° |
| 2026-04-27 05:16 | 45.19129 | 23.94205 | 34297 ft | 403 kts | 303° |
| 2026-04-27 05:16 | 45.22420 | 23.87743 | 34297 ft | 403 kts | 303° |
| 2026-04-27 05:17 | 45.25702 | 23.81290 | 34290 ft | 403 kts | 303° |
| 2026-04-27 05:17 | 45.28986 | 23.74827 | 34289 ft | 403 kts | 303° |
| 2026-04-27 05:18 | 45.32259 | 23.68362 | 34296 ft | 402 kts | 303° |
| 2026-04-27 05:18 | 45.35521 | 23.61898 | 34296 ft | 402 kts | 303° |
| 2026-04-27 05:19 | 45.38768 | 23.55455 | 34290 ft | 402 kts | 303° |
| 2026-04-27 05:19 | 45.42020 | 23.48985 | 34290 ft | 402 kts | 303° |
| 2026-04-27 05:20 | 45.45273 | 23.42502 | 34289 ft | 402 kts | 303° |
| 2026-04-27 05:20 | 45.48519 | 23.36019 | 34292 ft | 402 kts | 303° |
| 2026-04-27 05:21 | 45.51743 | 23.29557 | 34296 ft | 402 kts | 303° |
| 2026-04-27 05:21 | 45.54983 | 23.23053 | 34293 ft | 402 kts | 303° |
| 2026-04-27 05:22 | 45.58221 | 23.16541 | 34292 ft | 402 kts | 303° |
| 2026-04-27 05:22 | 45.61461 | 23.10008 | 34293 ft | 402 kts | 302° |
| 2026-04-27 05:23 | 45.64699 | 23.03466 | 34291 ft | 402 kts | 303° |
| 2026-04-27 05:23 | 45.67907 | 22.96965 | 34290 ft | 403 kts | 303° |
| 2026-04-27 05:24 | 45.71142 | 22.90394 | 34292 ft | 403 kts | 303° |
| 2026-04-27 05:24 | 45.74366 | 22.83835 | 34296 ft | 403 kts | 303° |
| 2026-04-27 05:25 | 45.77586 | 22.77272 | 34292 ft | 402 kts | 303° |
| 2026-04-27 05:25 | 45.80784 | 22.70735 | 34282 ft | 402 kts | 302° |
| 2026-04-27 05:26 | 45.83991 | 22.64162 | 34283 ft | 402 kts | 302° |
| 2026-04-27 05:26 | 45.87197 | 22.57575 | 34286 ft | 402 kts | 302° |
| 2026-04-27 05:27 | 45.90404 | 22.50977 | 34285 ft | 402 kts | 303° |
| 2026-04-27 05:27 | 45.93598 | 22.44388 | 34283 ft | 402 kts | 303° |
| 2026-04-27 05:28 | 45.96787 | 22.37790 | 34288 ft | 402 kts | 302° |
| 2026-04-27 05:28 | 45.99951 | 22.31228 | 34282 ft | 401 kts | 302° |
| 2026-04-27 05:29 | 46.03119 | 22.24642 | 34288 ft | 400 kts | 302° |
| 2026-04-27 05:29 | 46.06288 | 22.18041 | 34284 ft | 400 kts | 302° |
| 2026-04-27 05:30 | 46.09453 | 22.11433 | 34286 ft | 400 kts | 302° |
| 2026-04-27 05:30 | 46.12615 | 22.04815 | 34283 ft | 400 kts | 302° |
| 2026-04-27 05:31 | 46.15749 | 21.98239 | 34284 ft | 400 kts | 302° |
| 2026-04-27 05:31 | 46.18902 | 21.91607 | 34286 ft | 400 kts | 302° |
| 2026-04-27 05:32 | 46.22058 | 21.84958 | 34295 ft | 400 kts | 302° |
| 2026-04-27 05:32 | 46.25199 | 21.78323 | 34293 ft | 400 kts | 302° |
| 2026-04-27 05:33 | 46.28319 | 21.71718 | 34291 ft | 400 kts | 302° |
| 2026-04-27 05:33 | 46.31455 | 21.65062 | 34296 ft | 400 kts | 302° |
| 2026-04-27 05:34 | 46.34588 | 21.58393 | 34291 ft | 400 kts | 302° |
| 2026-04-27 05:34 | 46.37714 | 21.51721 | 34298 ft | 400 kts | 302° |
| 2026-04-27 05:35 | 46.40840 | 21.45041 | 34295 ft | 400 kts | 302° |
| 2026-04-27 05:35 | 46.43962 | 21.38356 | 34297 ft | 400 kts | 302° |
| 2026-04-27 05:36 | 46.47064 | 21.31692 | 34293 ft | 400 kts | 302° |
| 2026-04-27 05:36 | 46.50142 | 21.24947 | 34297 ft | 400 kts | 300° |
| 2026-04-27 05:37 | 46.53024 | 21.18021 | 34311 ft | 401 kts | 299° |
| 2026-04-27 05:37 | 46.55369 | 21.12218 | 34299 ft | 401 kts | 299° |
| 2026-04-27 05:38 | 46.58186 | 21.05260 | 34312 ft | 401 kts | 299° |
| 2026-04-27 05:38 | 46.61029 | 20.98277 | 34296 ft | 400 kts | 299° |
| 2026-04-27 05:39 | 46.63871 | 20.91297 | 34301 ft | 401 kts | 299° |
| 2026-04-27 05:39 | 46.66714 | 20.84302 | 34313 ft | 401 kts | 299° |
| 2026-04-27 05:40 | 46.69530 | 20.77358 | 34302 ft | 401 kts | 299° |
| 2026-04-27 05:40 | 46.72362 | 20.70349 | 34313 ft | 401 kts | 299° |
| 2026-04-27 05:41 | 46.75195 | 20.63317 | 34310 ft | 402 kts | 299° |
| 2026-04-27 05:41 | 46.78026 | 20.56282 | 34313 ft | 402 kts | 299° |
| 2026-04-27 05:42 | 46.80851 | 20.49240 | 34313 ft | 402 kts | 298° |
| 2026-04-27 05:42 | 46.83654 | 20.42234 | 34311 ft | 402 kts | 298° |
| 2026-04-27 05:43 | 46.86473 | 20.35168 | 34322 ft | 402 kts | 298° |
| 2026-04-27 05:43 | 46.89284 | 20.28100 | 34319 ft | 402 kts | 298° |
| 2026-04-27 05:44 | 46.92078 | 20.21063 | 34324 ft | 402 kts | 298° |
| 2026-04-27 05:44 | 46.94893 | 20.13954 | 34324 ft | 402 kts | 298° |
| 2026-04-27 05:45 | 46.97673 | 20.06912 | 34320 ft | 402 kts | 298° |
| 2026-04-27 05:45 | 47.00471 | 19.99806 | 34321 ft | 402 kts | 298° |
| 2026-04-27 05:46 | 47.03269 | 19.92681 | 34320 ft | 403 kts | 298° |
| 2026-04-27 05:46 | 47.06067 | 19.85539 | 34318 ft | 404 kts | 298° |
| 2026-04-27 05:47 | 47.08863 | 19.78385 | 34317 ft | 404 kts | 298° |
| 2026-04-27 05:47 | 47.11653 | 19.71226 | 34324 ft | 404 kts | 298° |
| 2026-04-27 05:48 | 47.14423 | 19.64105 | 34319 ft | 404 kts | 298° |
| 2026-04-27 05:48 | 47.17204 | 19.56930 | 34322 ft | 404 kts | 298° |
| 2026-04-27 05:49 | 47.19991 | 19.49720 | 34321 ft | 405 kts | 298° |
| 2026-04-27 05:49 | 47.22772 | 19.42505 | 34320 ft | 404 kts | 298° |
| 2026-04-27 05:50 | 47.25541 | 19.35316 | 34319 ft | 404 kts | 298° |
| 2026-04-27 05:50 | 47.28284 | 19.28160 | 34317 ft | 403 kts | 298° |
| 2026-04-27 05:51 | 47.31043 | 19.20941 | 34319 ft | 403 kts | 298° |
| 2026-04-27 05:51 | 47.33788 | 19.13730 | 34324 ft | 404 kts | 297° |
| 2026-04-27 05:52 | 47.36296 | 19.06287 | 34322 ft | 404 kts | 294° |
| 2026-04-27 05:52 | 47.38619 | 18.98736 | 34317 ft | 404 kts | 293° |
| 2026-04-27 05:53 | 47.40826 | 18.91364 | 33972 ft | 374 kts | 288° |
| 2026-04-27 05:53 | 47.41260 | 18.87990 | 35640 ft | 294 kts | 266° |
| 2026-04-27 05:53 | 47.40744 | 18.85444 | 37001 ft | 243 kts | 238° |
| 2026-04-27 05:53 | 47.39478 | 18.83744 | 36071 ft | 267 kts | 211° |
| 2026-04-27 05:54 | 47.37422 | 18.83072 | 33495 ft | 350 kts | 179° |
| 2026-04-27 05:54 | 47.34917 | 18.84502 | 31111 ft | 427 kts | 140° |
| 2026-04-27 05:54 | 47.33458 | 18.88418 | 29389 ft | 458 kts | 89° |
| 2026-04-27 05:54 | 47.34628 | 18.92421 | 27498 ft | 437 kts | 21° |
| 2026-04-27 05:55 | 47.37192 | 18.91912 | 24521 ft | 401 kts | 292° |
| 2026-04-27 05:55 | 47.36083 | 18.88650 | 21876 ft | 453 kts | 187° |
| 2026-04-27 05:55 | 47.33831 | 18.91387 | 19998 ft | 476 kts | 85° |
| 2026-04-27 05:55 | 47.35826 | 18.94049 | 17571 ft | 421 kts | 330° |
| 2026-04-27 05:56 | 47.36165 | 18.90626 | 15621 ft | 422 kts | 215° |
| 2026-04-27 05:56 | 47.33790 | 18.92024 | 13549 ft | 445 kts | 89° |
| 2026-04-27 05:56 | 47.35594 | 18.94247 | 11738 ft | 382 kts | 324° |
| 2026-04-27 05:56 | 47.35358 | 18.91240 | 10001 ft | 396 kts | 189° |
| 2026-04-27 05:57 | 47.34023 | 18.93710 | 8556 ft | 371 kts | 47° |
| 2026-04-27 05:57 | 47.35693 | 18.93133 | 6976 ft | 326 kts | 259° |
| 2026-04-27 05:57 | 47.34047 | 18.92719 | 5178 ft | 331 kts | 103° |
| 2026-04-27 05:57 | 47.35292 | 18.94137 | 3793 ft | 299 kts | 306° |
| 2026-04-27 05:58 | 47.34503 | 18.92376 | 1897 ft | 290 kts | 144° |
| 2026-04-27 05:58 | 47.34541 | 18.94481 | 756 ft | 128 kts | 46° |
| 2026-04-27 05:58 | 47.34676 | 18.94796 | 329 ft | 0 kts | 300° |